createdAt,value
2022-09-20T00:02:18.002Z,87.29
2022-09-20T00:04:44.428Z,87.53
2022-09-20T00:07:10.851Z,87.85
2022-09-20T00:09:37.208Z,88.06
2022-09-20T00:12:03.760Z,88.98
2022-09-20T00:14:30.667Z,89.37
2022-09-20T00:16:57.062Z,89.35
2022-09-20T00:19:23.491Z,89.68
2022-09-20T00:21:49.933Z,89.24
2022-09-20T00:24:16.386Z,89.20
2022-09-20T00:26:42.743Z,89.33
2022-09-20T00:29:09.244Z,90.23
2022-09-20T00:31:39.051Z,91.56
2022-09-20T00:34:24.453Z,91.99
2022-09-20T00:36:50.835Z,90.73
2022-09-20T00:39:17.303Z,91.11
2022-09-20T00:41:44.967Z,91.01
2022-09-20T00:44:46.044Z,91.36
2022-09-20T00:47:28.611Z,90.89
2022-09-20T00:50:21.778Z,90.16
2022-09-20T00:52:53.739Z,90.95
2022-09-20T00:55:21.466Z,91.16
2022-09-20T00:57:48.327Z,90.76
2022-09-20T01:00:15.244Z,91.72
2022-09-20T01:02:47.215Z,90.72
2022-09-20T01:05:15.759Z,91.50
2022-09-20T01:07:44.215Z,92.03
2022-09-20T01:10:10.623Z,91.13
2022-09-20T01:12:40.287Z,91.42
2022-09-20T01:15:08.256Z,92.20
2022-09-20T01:17:37.999Z,92.07
2022-09-20T01:20:22.656Z,92.47
2022-09-20T01:23:01.262Z,93.37
2022-09-20T01:25:47.318Z,92.56
2022-09-20T01:28:15.237Z,92.94
2022-09-20T01:30:51.144Z,92.39
2022-09-20T01:33:28.122Z,92.67
2022-09-20T01:35:57.245Z,92.48
2022-09-20T01:38:42.283Z,92.56
2022-09-20T01:41:15.442Z,92.46
2022-09-20T01:44:03.427Z,91.74
2022-09-20T01:46:33.504Z,90.85
2022-09-20T01:49:44.093Z,91.09
2022-09-20T01:52:36.449Z,91.14
2022-09-20T01:55:20.778Z,90.66
2022-09-20T01:57:59.624Z,91.55
2022-09-20T02:00:30.990Z,90.69
2022-09-20T02:03:09.528Z,91.37
2022-09-20T02:05:46.449Z,91.46
2022-09-20T02:08:31.112Z,91.23
2022-09-20T02:11:25.580Z,91.22
2022-09-20T02:14:45.627Z,90.85
2022-09-20T02:17:37.900Z,91.83
2022-09-20T02:20:18.787Z,92.36
2022-09-20T02:23:20.645Z,92.82
2022-09-20T02:25:57.572Z,93.45
2022-09-20T02:29:01.214Z,94.69
2022-09-20T02:31:50.680Z,94.91
2022-09-20T02:34:35.386Z,94.86
2022-09-20T02:37:21.680Z,94.75
2022-09-20T02:40:19.922Z,95.39
2022-09-20T02:43:05.035Z,94.58
2022-09-20T02:45:41.913Z,94.71
2022-09-20T02:48:08.655Z,94.86
2022-09-20T02:50:52.437Z,94.76
2022-09-20T02:53:46.189Z,94.73
2022-09-20T02:56:21.068Z,94.14
2022-09-20T02:59:11.672Z,94.09
2022-09-20T03:01:50.610Z,94.57
2022-09-20T03:05:06.993Z,94.20
2022-09-20T03:08:15.584Z,93.72
2022-09-20T03:11:03.714Z,94.49
2022-09-20T03:13:43.672Z,93.87
2022-09-20T03:16:21.381Z,93.96
2022-09-20T03:19:17.135Z,93.39
2022-09-20T03:21:57.744Z,92.70
2022-09-20T03:24:55.072Z,91.95
2022-09-20T03:27:49.965Z,92.19
2022-09-20T03:30:22.370Z,92.02
2022-09-20T03:33:15.227Z,91.84
2022-09-20T03:36:22.998Z,92.29
2022-09-20T03:39:07.457Z,92.51
2022-09-20T03:42:02.662Z,93.76
2022-09-20T03:45:01.366Z,93.31
2022-09-20T03:47:47.927Z,92.78
2022-09-20T03:50:46.390Z,93.36
2022-09-20T03:53:27.785Z,93.75
2022-09-20T03:56:31.039Z,94.83
2022-09-20T03:58:57.365Z,95.06
2022-09-20T04:01:48.742Z,98.25
2022-09-20T04:04:50.846Z,97.56
2022-09-20T04:07:40.739Z,96.89
2022-09-20T04:10:32.371Z,96.47
2022-09-20T04:13:19.876Z,97.09
2022-09-20T04:15:59.291Z,95.98
2022-09-20T04:18:58.179Z,95.89
2022-09-20T04:21:34.376Z,95.43
2022-09-20T04:24:15.923Z,94.69
2022-09-20T04:26:50.984Z,93.52
2022-09-20T04:29:32.487Z,93.05
2022-09-20T04:32:17.802Z,91.87
2022-09-20T04:35:10.851Z,90.34
2022-09-20T04:37:38.398Z,89.94
2022-09-20T04:40:43.668Z,91.61
2022-09-20T04:43:39.542Z,93.35
2022-09-20T04:46:41.196Z,95.18
2022-09-20T04:49:33.623Z,97.56
2022-09-20T04:52:26.169Z,97.07
2022-09-20T04:55:06.046Z,97.58
2022-09-20T04:57:44.232Z,97.99
2022-09-20T05:00:16.858Z,98.63
2022-09-20T05:02:55.396Z,99.03
2022-09-20T05:05:46.539Z,99.05
2022-09-20T05:08:22.976Z,99.33
2022-09-20T05:11:10.955Z,98.73
2022-09-20T05:14:13.748Z,99.36
2022-09-20T05:16:58.956Z,99.72
2022-09-20T05:19:28.341Z,99.34
2022-09-20T05:22:06.713Z,98.65
2022-09-20T05:25:01.108Z,99.99
2022-09-20T05:28:04.952Z,100.00
2022-09-20T05:30:39.579Z,100.00
2022-09-20T05:33:15.376Z,98.95
2022-09-20T05:36:17.330Z,96.75
2022-09-20T05:39:02.781Z,92.08
2022-09-20T05:41:48.177Z,87.88
2022-09-20T05:44:23.448Z,85.35
2022-09-20T05:47:08.231Z,80.61
2022-09-20T05:50:08.467Z,79.81
2022-09-20T05:52:52.840Z,80.89
2022-09-20T05:56:02.677Z,79.10
2022-09-20T05:59:02.112Z,76.87
2022-09-20T06:01:40.095Z,76.00
2022-09-20T06:04:17.942Z,74.75
2022-09-20T06:06:53.704Z,71.03
2022-09-20T06:09:42.640Z,66.44
2022-09-20T06:12:15.160Z,61.46
2022-09-20T06:15:11.288Z,56.93
2022-09-20T06:17:48.078Z,54.90
2022-09-20T06:20:33.057Z,53.69
2022-09-20T06:23:03.770Z,52.69
2022-09-20T06:25:33.279Z,51.70
2022-09-20T06:28:20.993Z,51.59
2022-09-20T06:30:49.969Z,54.58
2022-09-20T06:33:28.375Z,57.24
2022-09-20T06:36:21.408Z,61.15
2022-09-20T06:39:26.629Z,63.32
2022-09-20T06:41:54.387Z,64.15
2022-09-20T06:44:20.778Z,65.18
2022-09-20T06:46:47.645Z,66.49
2022-09-20T06:49:14.016Z,70.82
2022-09-20T06:51:41.365Z,69.79
2022-09-20T06:54:17.156Z,67.89
2022-09-20T06:56:45.496Z,68.42
2022-09-20T06:59:12.758Z,64.61
2022-09-20T07:01:39.401Z,60.95
2022-09-20T07:04:06.440Z,58.36
2022-09-20T07:06:33.481Z,55.81
2022-09-20T07:08:59.918Z,53.43
2022-09-20T07:11:26.516Z,51.87
2022-09-20T07:13:55.242Z,51.97
2022-09-20T07:16:22.127Z,49.49
2022-09-20T07:18:49.070Z,49.94
2022-09-20T07:21:17.738Z,49.42
2022-09-20T07:23:48.541Z,51.04
2022-09-20T07:26:25.743Z,51.95
2022-09-20T07:28:52.877Z,54.07
2022-09-20T07:31:25.591Z,56.32
2022-09-20T07:33:52.182Z,57.52
2022-09-20T07:36:18.871Z,58.08
2022-09-20T07:38:50.323Z,59.57
2022-09-20T07:41:22.678Z,59.95
2022-09-20T07:43:50.720Z,62.73
2022-09-20T07:46:17.306Z,63.16
2022-09-20T07:48:44.190Z,61.03
2022-09-20T07:51:13.441Z,62.11
2022-09-20T07:53:40.871Z,62.23
2022-09-20T07:56:11.516Z,60.51
2022-09-20T07:58:38.393Z,59.76
2022-09-20T08:01:13.290Z,59.52
2022-09-20T08:03:40.418Z,59.30
2022-09-20T08:06:09.628Z,57.84
2022-09-20T08:08:43.426Z,60.05
2022-09-20T08:11:16.140Z,59.20
2022-09-20T08:16:43.300Z,56.15
2022-09-20T08:19:15.369Z,56.50
2022-09-20T08:21:41.851Z,55.98
2022-09-20T08:24:08.279Z,54.06
2022-09-20T08:26:37.579Z,53.23
2022-09-20T08:29:05.896Z,52.60
2022-09-20T08:31:35.410Z,54.22
2022-09-20T08:34:03.799Z,53.94
2022-09-20T08:36:36.111Z,52.92
2022-09-20T08:42:06.254Z,49.28
2022-09-20T08:44:45.420Z,48.16
2022-09-20T08:47:25.004Z,47.60
2022-09-20T08:49:57.634Z,46.78
2022-09-20T08:52:37.093Z,47.44
2022-09-20T08:55:27.901Z,47.18
2022-09-20T08:57:56.854Z,48.22
2022-09-20T09:00:27.782Z,49.18
2022-09-20T09:02:57.069Z,50.06
2022-09-20T09:05:44.021Z,50.32
2022-09-20T09:08:28.104Z,49.66
2022-09-20T09:11:02.051Z,51.15
2022-09-20T09:13:37.426Z,48.51
2022-09-20T09:16:13.013Z,48.65
2022-09-20T09:18:42.396Z,47.75
2022-09-20T09:21:17.576Z,46.18
2022-09-20T09:24:06.107Z,43.48
2022-09-20T09:26:40.765Z,42.72
2022-09-20T09:29:18.060Z,44.14
2022-09-20T09:31:50.652Z,43.55
2022-09-20T09:34:36.088Z,43.39
2022-09-20T09:37:02.763Z,43.49
2022-09-20T09:39:35.840Z,41.62
2022-09-20T09:42:25.786Z,42.61
2022-09-20T09:44:52.304Z,43.84
2022-09-20T09:47:29.234Z,41.95
2022-09-20T09:50:02.656Z,39.71
2022-09-20T09:52:33.283Z,37.79
2022-09-20T09:55:05.143Z,35.68
2022-09-20T09:57:37.896Z,32.79
2022-09-20T10:00:22.034Z,35.17
2022-09-20T10:03:04.031Z,34.16
2022-09-20T10:05:40.762Z,33.65
2022-09-20T10:08:39.656Z,31.82
2022-09-20T10:11:30.113Z,30.58
2022-09-20T10:14:38.032Z,29.80
2022-09-20T10:17:23.172Z,30.10
2022-09-20T10:20:14.709Z,28.16
2022-09-20T10:23:06.817Z,28.89
2022-09-20T10:26:08.637Z,28.39
2022-09-20T10:28:54.497Z,29.66
2022-09-20T10:31:33.261Z,31.72
2022-09-20T10:34:14.118Z,34.29
2022-09-20T10:36:51.590Z,37.28
2022-09-20T10:39:33.363Z,39.58
2022-09-20T10:43:00.927Z,40.76
2022-09-20T10:46:14.497Z,44.08
2022-09-20T10:48:48.539Z,45.63
2022-09-20T10:51:35.121Z,46.15
2022-09-20T10:54:23.621Z,46.03
2022-09-20T10:56:56.200Z,43.73
2022-09-20T10:59:36.957Z,44.25
2022-09-20T11:02:21.526Z,41.56
2022-09-20T11:05:26.157Z,39.07
2022-09-20T11:08:05.974Z,37.97
2022-09-20T11:10:42.378Z,38.60
2022-09-20T11:13:27.675Z,38.84
2022-09-20T11:16:18.288Z,34.43
2022-09-20T11:18:54.634Z,30.00
2022-09-20T11:21:34.019Z,27.47
2022-09-20T11:24:23.535Z,28.53
2022-09-20T11:27:25.197Z,30.15
2022-09-20T11:30:06.140Z,30.07
2022-09-20T11:32:46.677Z,28.69
2022-09-20T11:35:16.028Z,31.26
2022-09-20T11:37:53.074Z,32.13
2022-09-20T11:40:26.872Z,37.28
2022-09-20T11:42:59.149Z,43.54
2022-09-20T11:45:28.573Z,48.06
2022-09-20T11:48:02.788Z,48.53
2022-09-20T11:51:01.012Z,51.53
2022-09-20T11:54:12.559Z,52.11
2022-09-20T11:56:39.937Z,52.09
2022-09-20T11:59:22.333Z,51.70
2022-09-20T12:01:48.834Z,50.25
2022-09-20T12:04:32.295Z,48.38
2022-09-20T12:07:10.531Z,42.33
2022-09-20T12:09:42.691Z,44.36
2022-09-20T12:12:32.694Z,45.99
2022-09-20T12:15:02.302Z,46.30
2022-09-20T12:17:46.930Z,44.10
2022-09-20T12:20:35.231Z,36.09
2022-09-20T12:23:42.258Z,35.96
2022-09-20T12:26:15.706Z,36.43
2022-09-20T12:28:50.048Z,36.48
2022-09-20T12:31:22.233Z,34.97
2022-09-20T12:34:16.032Z,32.70
2022-09-20T12:36:46.543Z,28.65
2022-09-20T12:39:16.262Z,27.31
2022-09-20T12:42:04.427Z,24.00
2022-09-20T12:44:44.505Z,23.30
2022-09-20T12:47:10.857Z,22.86
2022-09-20T12:50:02.144Z,23.72
2022-09-20T12:52:58.438Z,24.35
2022-09-20T12:55:30.789Z,22.73
2022-09-20T12:58:17.115Z,20.88
2022-09-20T13:00:46.773Z,22.70
2022-09-20T13:03:21.582Z,21.98
2022-09-20T13:05:52.563Z,23.54
2022-09-20T13:08:25.192Z,24.76
2022-09-20T13:11:06.816Z,22.70
2022-09-20T13:13:55.631Z,24.50
2022-09-20T13:16:28.885Z,25.56
2022-09-20T13:19:22.777Z,29.08
2022-09-20T13:22:14.842Z,30.42
2022-09-20T13:24:45.007Z,32.95
2022-09-20T13:27:21.026Z,33.90
2022-09-20T13:29:47.550Z,34.24
2022-09-20T13:32:31.520Z,35.86
2022-09-20T13:35:10.014Z,38.04
2022-09-20T13:37:52.790Z,40.47
2022-09-20T13:40:33.733Z,38.83
2022-09-20T13:43:22.554Z,33.34
2022-09-20T13:45:53.876Z,30.29
2022-09-20T13:48:24.817Z,31.90
2022-09-20T13:50:53.657Z,34.64
2022-09-20T13:53:40.180Z,35.69
2022-09-20T13:56:19.454Z,40.30
2022-09-20T13:58:46.128Z,40.31
2022-09-20T14:01:44.177Z,40.04
2022-09-20T14:04:16.266Z,41.62
2022-09-20T14:06:42.770Z,41.95
2022-09-20T14:09:28.686Z,42.10
2022-09-20T14:11:56.098Z,43.45
2022-09-20T14:14:24.792Z,44.42
2022-09-20T14:16:53.054Z,44.19
2022-09-20T14:19:22.933Z,44.32
2022-09-20T14:21:49.834Z,40.50
2022-09-20T14:24:16.519Z,37.62
2022-09-20T14:26:59.382Z,35.81
2022-09-20T14:29:30.733Z,33.97
2022-09-20T14:32:06.257Z,31.86
2022-09-20T14:34:37.795Z,31.31
2022-09-20T14:37:13.601Z,31.50
2022-09-20T14:39:53.889Z,33.63
2022-09-20T14:42:41.755Z,34.92
2022-09-20T14:45:20.251Z,35.00
2022-09-20T14:47:57.375Z,38.40
2022-09-20T14:50:28.807Z,39.04
2022-09-20T14:53:21.490Z,39.82
2022-09-20T14:56:09.491Z,41.40
2022-09-20T14:59:13.950Z,41.67
2022-09-20T15:01:44.985Z,41.37
2022-09-20T15:04:22.877Z,43.14
2022-09-20T15:06:50.721Z,44.26
2022-09-20T15:09:19.259Z,45.94
2022-09-20T15:11:45.741Z,45.38
2022-09-20T15:14:12.315Z,45.48
2022-09-20T15:16:38.868Z,46.40
2022-09-20T15:19:07.943Z,47.03
2022-09-20T15:21:34.334Z,47.74
2022-09-20T15:24:00.949Z,47.59
2022-09-20T15:26:27.330Z,48.04
2022-09-20T15:28:54.004Z,49.62
2022-09-20T15:31:21.149Z,49.15
2022-09-20T15:33:47.764Z,49.70
2022-09-20T15:36:15.296Z,50.05
2022-09-20T15:38:41.672Z,51.36
2022-09-20T15:41:08.162Z,51.50
2022-09-20T15:43:34.581Z,53.54
2022-09-20T15:46:17.721Z,53.56
2022-09-20T15:48:44.089Z,53.54
2022-09-20T15:51:11.634Z,54.32
2022-09-20T15:53:44.975Z,54.54
2022-09-20T15:56:21.032Z,54.77
2022-09-20T15:58:50.435Z,55.29
2022-09-20T16:01:18.404Z,54.76
2022-09-20T16:03:46.098Z,54.41
2022-09-20T16:06:13.257Z,53.96
2022-09-20T16:08:41.569Z,52.93
2022-09-20T16:11:14.383Z,53.59
2022-09-20T16:13:40.948Z,53.14
2022-09-20T16:16:09.824Z,54.08
2022-09-20T16:18:55.297Z,53.42
2022-09-20T16:21:22.112Z,53.66
2022-09-20T16:23:51.417Z,52.77
2022-09-20T16:26:19.586Z,53.43
2022-09-20T16:28:47.732Z,54.39
2022-09-20T16:31:32.702Z,56.76
2022-09-20T16:34:03.782Z,61.22
2022-09-20T16:36:31.620Z,62.14
2022-09-20T16:38:58.562Z,64.37
2022-09-20T16:41:27.095Z,68.10
2022-09-20T16:43:53.922Z,68.08
2022-09-20T16:46:22.610Z,70.76
2022-09-20T16:48:53.028Z,68.45
2022-09-20T16:51:25.551Z,69.17
2022-09-20T16:53:55.659Z,70.73
2022-09-20T16:56:24.573Z,71.94
2022-09-20T16:58:51.658Z,71.61
2022-09-20T17:01:18.602Z,72.64
2022-09-20T17:03:45.996Z,72.22
2022-09-20T17:06:14.500Z,72.24
2022-09-20T17:08:42.140Z,71.67
2022-09-20T17:11:10.556Z,71.45
2022-09-20T17:13:41.525Z,73.16
2022-09-20T17:16:37.828Z,73.17
2022-09-20T17:19:10.933Z,74.87
2022-09-20T17:21:40.076Z,76.12
2022-09-20T17:24:07.612Z,77.73
2022-09-20T17:26:37.545Z,78.33
2022-09-20T17:29:06.555Z,80.03
2022-09-20T17:31:39.161Z,79.23
2022-09-20T17:34:09.386Z,80.17
2022-09-20T17:36:42.011Z,80.28
2022-09-20T17:39:10.952Z,80.46
2022-09-20T17:41:38.811Z,81.38
2022-09-20T17:44:09.808Z,81.21
2022-09-20T17:46:39.247Z,81.88
2022-09-20T17:49:11.832Z,83.86
2022-09-20T17:51:43.676Z,83.17
2022-09-20T17:54:14.333Z,83.52
2022-09-20T17:56:46.382Z,83.82
2022-09-20T17:59:17.200Z,83.99
2022-09-20T18:01:45.752Z,84.48
2022-09-20T18:04:12.966Z,84.33
2022-09-20T18:06:47.016Z,84.40
2022-09-20T18:09:18.389Z,84.55
2022-09-20T18:11:49.004Z,84.57
2022-09-20T18:14:24.035Z,86.12
2022-09-20T18:16:55.874Z,86.32
2022-09-20T18:19:22.839Z,85.77
2022-09-20T18:21:49.993Z,86.05
2022-09-20T18:24:16.465Z,85.33
2022-09-20T18:26:44.036Z,84.95
2022-09-20T18:29:12.641Z,84.31
2022-09-20T18:31:43.208Z,85.10
2022-09-20T18:34:17.741Z,84.59
2022-09-20T18:36:47.786Z,84.22
2022-09-20T18:39:14.366Z,84.54
2022-09-20T18:41:43.935Z,84.41
2022-09-20T18:44:14.090Z,84.63
2022-09-20T18:46:40.764Z,84.44
2022-09-20T18:49:09.315Z,84.74
2022-09-20T18:51:39.792Z,85.59
2022-09-20T18:54:11.209Z,85.48
2022-09-20T18:56:40.065Z,84.11
2022-09-20T18:59:24.992Z,84.18
2022-09-20T19:01:54.961Z,84.71
2022-09-20T19:04:39.940Z,84.51
2022-09-20T19:07:24.802Z,84.27
2022-09-20T19:10:06.037Z,83.51
2022-09-20T19:12:39.284Z,83.91
2022-09-20T19:15:21.325Z,83.40
2022-09-20T19:18:11.208Z,83.90
2022-09-20T19:20:53.441Z,84.34
2022-09-20T19:24:03.266Z,83.92
2022-09-20T19:26:31.881Z,83.83
2022-09-20T19:29:00.131Z,84.30
2022-09-20T19:31:28.145Z,84.22
2022-09-20T19:33:56.790Z,85.05
2022-09-20T19:36:25.467Z,85.35
2022-09-20T19:39:09.572Z,85.69
2022-09-20T19:41:46.140Z,85.43
2022-09-20T19:44:32.289Z,85.59
2022-09-20T19:47:20.972Z,85.84
2022-09-20T19:49:56.182Z,85.06
2022-09-20T19:52:23.767Z,84.43
2022-09-20T19:54:51.636Z,85.74
2022-09-20T19:57:39.705Z,85.00
2022-09-20T20:00:09.470Z,86.23
2022-09-20T20:02:36.318Z,84.70
2022-09-20T20:05:03.678Z,84.38
2022-09-20T20:07:41.236Z,85.37
2022-09-20T20:10:25.781Z,85.99
2022-09-20T20:13:52.512Z,90.28
2022-09-20T20:16:39.189Z,95.03
2022-09-20T20:19:23.462Z,93.84
2022-09-20T20:21:57.581Z,93.62
2022-09-20T20:24:36.786Z,92.89
2022-09-20T20:27:03.965Z,92.56
2022-09-20T20:29:30.391Z,92.66
2022-09-20T20:31:56.802Z,92.61
2022-09-20T20:34:24.381Z,91.89
2022-09-20T20:36:52.353Z,91.01
2022-09-20T20:39:18.744Z,90.72
2022-09-20T20:41:52.349Z,91.05
2022-09-20T20:44:20.741Z,90.07
2022-09-20T20:46:47.919Z,89.89
2022-09-20T20:49:15.405Z,89.13
2022-09-20T20:51:42.044Z,89.02
2022-09-20T20:54:10.028Z,88.54
2022-09-20T20:56:36.480Z,88.16
2022-09-20T20:59:04.506Z,88.89
2022-09-20T21:01:32.809Z,88.91
2022-09-20T21:04:00.177Z,89.24
2022-09-20T21:06:29.507Z,89.31
2022-09-20T21:08:56.742Z,89.24
2022-09-20T21:11:25.865Z,89.71
2022-09-20T21:13:57.694Z,89.97
2022-09-20T21:16:26.969Z,90.37
2022-09-20T21:18:53.411Z,89.84
2022-09-20T21:21:29.817Z,90.47
2022-09-20T21:23:58.240Z,90.16
2022-09-20T21:26:27.686Z,89.70
2022-09-20T21:28:59.511Z,90.03
2022-09-20T21:31:30.829Z,90.73
2022-09-20T21:33:57.659Z,91.00
2022-09-20T21:36:26.867Z,91.74
2022-09-20T21:38:53.712Z,91.82
2022-09-20T21:41:25.110Z,91.99
2022-09-20T21:43:53.824Z,92.49
2022-09-20T21:46:22.996Z,91.81
2022-09-20T21:48:50.527Z,93.03
2022-09-20T21:51:18.540Z,92.60
2022-09-20T21:53:45.286Z,94.37
2022-09-20T21:56:14.524Z,93.37
2022-09-20T21:58:41.156Z,93.50
2022-09-20T22:01:13.935Z,92.73
2022-09-20T22:03:45.321Z,93.19
2022-09-20T22:06:19.205Z,93.27
2022-09-20T22:08:50.685Z,93.75
2022-09-20T22:11:18.481Z,93.49
2022-09-20T22:13:47.272Z,93.28
2022-09-20T22:16:19.168Z,92.34
2022-09-20T22:18:46.787Z,93.46
2022-09-20T22:21:21.941Z,94.64
2022-09-20T22:23:50.611Z,94.12
2022-09-20T22:26:20.093Z,93.86
2022-09-20T22:28:49.630Z,93.76
2022-09-20T22:31:37.437Z,93.86
2022-09-20T22:34:07.164Z,93.66
2022-09-20T22:36:36.507Z,93.50
2022-09-20T22:39:04.383Z,92.78
2022-09-20T22:41:30.940Z,92.39
2022-09-20T22:43:57.348Z,92.67
2022-09-20T22:46:26.960Z,93.46
2022-09-20T22:48:53.564Z,93.48
2022-09-20T22:51:25.228Z,92.92
2022-09-20T22:53:52.659Z,93.12
2022-09-20T22:56:29.227Z,93.65
2022-09-20T22:58:56.847Z,93.94
2022-09-20T23:01:26.925Z,93.93
2022-09-20T23:03:56.359Z,93.51
2022-09-20T23:06:26.707Z,94.21
2022-09-20T23:08:55.841Z,94.26
2022-09-20T23:11:23.411Z,95.01
2022-09-20T23:13:54.745Z,96.11
2022-09-20T23:16:23.888Z,96.05
2022-09-20T23:18:51.373Z,95.36
2022-09-20T23:21:18.188Z,94.71
2022-09-20T23:23:45.287Z,93.99
2022-09-20T23:26:17.218Z,94.03
2022-09-20T23:28:46.208Z,93.68
2022-09-20T23:31:15.717Z,94.95
2022-09-20T23:33:54.658Z,94.26
2022-09-20T23:36:22.157Z,97.18
2022-09-20T23:38:49.356Z,97.03
2022-09-20T23:41:18.132Z,96.45
2022-09-20T23:43:44.978Z,96.22
2022-09-20T23:46:13.556Z,95.30
2022-09-20T23:48:44.066Z,94.55
2022-09-20T23:51:15.160Z,94.01
2022-09-20T23:53:42.813Z,93.58
2022-09-20T23:56:10.486Z,93.22
2022-09-20T23:58:38.785Z,93.51
